createdAt,value
2022-07-28T00:03:04.042Z,72.88
2022-07-28T00:08:06.169Z,72.46
2022-07-28T00:13:07.691Z,72.01
2022-07-28T00:18:09.211Z,71.36
2022-07-28T00:23:10.765Z,70.59
2022-07-28T00:28:12.275Z,70.59
2022-07-28T00:33:13.827Z,70.28
2022-07-28T00:38:15.392Z,70.17
2022-07-28T00:43:16.967Z,70.78
2022-07-28T00:48:18.472Z,70.74
2022-07-28T00:53:20.398Z,71.46
2022-07-28T00:58:21.943Z,70.98
2022-07-28T01:03:24.739Z,70.33
2022-07-28T01:09:01.020Z,69.29
2022-07-28T01:14:11.442Z,68.92
2022-07-28T01:19:32.662Z,68.40
2022-07-28T01:24:47.411Z,68.36
2022-07-28T01:30:26.198Z,68.04
2022-07-28T01:35:33.485Z,68.34
2022-07-28T01:40:36.966Z,69.18
2022-07-28T01:45:41.193Z,69.37
2022-07-28T01:50:44.299Z,69.39
2022-07-28T01:55:47.222Z,69.75
2022-07-28T02:00:50.457Z,70.49
2022-07-28T02:05:53.915Z,70.98
2022-07-28T02:11:15.452Z,71.93
2022-07-28T02:16:20.889Z,71.94
2022-07-28T02:21:25.373Z,71.45
2022-07-28T02:26:32.153Z,71.99
2022-07-28T02:31:42.128Z,71.90
2022-07-28T02:36:49.511Z,71.82
2022-07-28T02:41:58.189Z,71.88
2022-07-28T02:47:01.417Z,71.71
2022-07-28T02:52:07.679Z,72.11
2022-07-28T02:57:10.525Z,71.97
2022-07-28T03:02:13.276Z,71.80
2022-07-28T03:07:15.297Z,72.01
2022-07-28T03:12:17.237Z,72.42
2022-07-28T03:17:19.511Z,72.91
2022-07-28T03:22:21.126Z,73.33
2022-07-28T03:27:31.016Z,73.36
2022-07-28T03:32:36.063Z,73.45
2022-07-28T03:37:49.456Z,73.46
2022-07-28T03:42:51.998Z,73.56
2022-07-28T03:47:56.268Z,73.33
2022-07-28T03:52:59.756Z,72.94
2022-07-28T03:58:01.519Z,72.96
2022-07-28T04:03:03.086Z,73.49
2022-07-28T04:08:05.531Z,72.90
2022-07-28T04:13:07.856Z,72.78
2022-07-28T04:18:09.382Z,73.32
2022-07-28T04:23:10.932Z,73.22
2022-07-28T04:28:12.487Z,73.73
2022-07-28T04:33:14.041Z,73.55
2022-07-28T04:38:18.101Z,74.05
2022-07-28T04:43:19.824Z,74.49
2022-07-28T04:48:24.725Z,74.63
2022-07-28T04:53:26.308Z,74.44
2022-07-28T04:58:28.009Z,74.70
2022-07-28T05:03:36.161Z,75.14
2022-07-28T05:08:38.058Z,75.13
2022-07-28T05:13:39.553Z,75.56
2022-07-28T05:18:41.050Z,75.85
2022-07-28T05:23:47.377Z,75.67
2022-07-28T05:28:49.235Z,75.80
2022-07-28T05:33:50.812Z,76.31
2022-07-28T05:38:53.804Z,76.75
2022-07-28T05:43:55.345Z,77.00
2022-07-28T05:48:57.249Z,76.59
2022-07-28T05:53:58.829Z,76.85
2022-07-28T05:59:00.377Z,76.85
2022-07-28T06:04:27.316Z,76.32
2022-07-28T06:09:23.426Z,74.85
2022-07-28T06:14:24.944Z,73.67
2022-07-28T06:19:26.703Z,73.20
2022-07-28T06:24:28.541Z,72.07
2022-07-28T06:29:30.538Z,72.72
2022-07-28T06:34:32.053Z,70.52
2022-07-28T06:39:33.559Z,70.66
2022-07-28T06:44:57.416Z,70.54
2022-07-28T06:49:56.771Z,70.14
2022-07-28T06:54:59.920Z,70.93
2022-07-28T07:00:06.833Z,70.87
2022-07-28T07:05:09.859Z,70.32
2022-07-28T07:10:11.707Z,69.96
2022-07-28T07:15:13.320Z,70.45
2022-07-28T07:20:17.202Z,70.62
2022-07-28T07:25:20.117Z,69.55
2022-07-28T07:30:21.685Z,69.91
2022-07-28T07:35:23.467Z,69.68
2022-07-28T07:40:25.058Z,68.23
2022-07-28T07:45:26.704Z,68.30
2022-07-28T07:50:28.442Z,68.84
2022-07-28T07:55:34.521Z,68.40
2022-07-28T08:00:39.297Z,67.05
2022-07-28T08:05:40.828Z,66.40
2022-07-28T08:10:42.345Z,66.10
2022-07-28T08:15:43.873Z,66.38
2022-07-28T08:20:45.463Z,64.35
2022-07-28T08:25:47.004Z,63.10
2022-07-28T08:30:48.512Z,62.29
2022-07-28T08:35:50.537Z,61.69
2022-07-28T08:40:56.725Z,60.34
2022-07-28T08:46:01.523Z,60.90
2022-07-28T08:51:07.346Z,61.59
2022-07-28T08:56:13.861Z,61.96
2022-07-28T09:01:17.024Z,62.17
2022-07-28T09:06:22.138Z,61.82
2022-07-28T09:11:28.151Z,61.13
2022-07-28T09:16:29.875Z,60.66
2022-07-28T09:21:31.696Z,60.53
2022-07-28T09:26:33.214Z,60.67
2022-07-28T09:31:34.835Z,59.72
2022-07-28T09:36:41.411Z,59.93
2022-07-28T09:41:53.150Z,60.14
2022-07-28T09:46:56.244Z,59.32
2022-07-28T09:52:03.360Z,60.02
2022-07-28T09:57:05.017Z,59.34
2022-07-28T10:02:06.924Z,58.86
2022-07-28T10:07:17.418Z,58.53
2022-07-28T10:12:21.403Z,57.95
2022-07-28T10:17:24.823Z,55.51
2022-07-28T10:22:33.731Z,48.86
2022-07-28T10:27:36.655Z,45.65
2022-07-28T10:32:44.604Z,44.90
2022-07-28T10:37:57.573Z,45.61
2022-07-28T10:43:00.519Z,48.64
2022-07-28T10:48:04.119Z,51.43
2022-07-28T10:53:07.921Z,52.28
2022-07-28T10:58:33.863Z,51.93
2022-07-28T11:03:45.546Z,53.00
2022-07-28T11:08:47.517Z,52.86
2022-07-28T11:13:50.341Z,54.03
2022-07-28T11:19:36.639Z,55.14
2022-07-28T11:24:58.632Z,54.63
2022-07-28T11:30:00.311Z,54.45
2022-07-28T11:35:07.512Z,54.92
2022-07-28T11:40:45.725Z,55.27
2022-07-28T11:45:56.020Z,55.43
2022-07-28T11:51:03.970Z,55.75
2022-07-28T11:56:10.724Z,55.73
2022-07-28T12:01:17.945Z,55.74
2022-07-28T12:06:26.256Z,54.63
2022-07-28T12:11:35.530Z,54.01
2022-07-28T12:16:39.972Z,53.42
2022-07-28T12:21:50.325Z,53.09
2022-07-28T12:26:51.953Z,53.22
2022-07-28T12:31:59.244Z,53.20
2022-07-28T12:37:04.149Z,52.85
2022-07-28T12:42:11.694Z,52.73
2022-07-28T12:47:15.269Z,53.70
2022-07-28T12:52:17.621Z,53.53
2022-07-28T12:57:47.944Z,53.62
2022-07-28T13:02:52.798Z,53.79
2022-07-28T13:08:05.678Z,53.24
2022-07-28T13:13:07.860Z,52.92
2022-07-28T13:18:09.446Z,51.98
2022-07-28T13:23:11.401Z,51.63
2022-07-28T13:28:26.907Z,51.20
2022-07-28T13:33:28.574Z,51.21
2022-07-28T13:38:30.417Z,50.98
2022-07-28T13:43:36.069Z,50.70
2022-07-28T13:48:59.870Z,50.69
2022-07-28T13:54:01.779Z,49.88
2022-07-28T13:59:03.455Z,49.88
2022-07-28T14:04:13.135Z,49.43
2022-07-28T14:09:21.035Z,49.52
2022-07-28T14:14:24.832Z,50.23
2022-07-28T14:19:38.202Z,50.67
2022-07-28T14:24:43.554Z,50.22
2022-07-28T14:29:45.761Z,51.06
2022-07-28T14:34:47.402Z,51.33
2022-07-28T14:39:48.934Z,52.28
2022-07-28T14:44:50.526Z,52.47
2022-07-28T14:49:58.023Z,53.32
2022-07-28T14:55:00.142Z,53.21
2022-07-28T15:00:01.723Z,52.83
2022-07-28T15:05:03.937Z,53.36
2022-07-28T15:10:06.738Z,52.91
2022-07-28T15:15:09.106Z,52.87
2022-07-28T15:20:11.419Z,53.07
2022-07-28T15:25:12.952Z,53.37
2022-07-28T15:30:14.586Z,53.75
2022-07-28T15:35:18.307Z,53.48
2022-07-28T15:40:20.036Z,53.95
2022-07-28T15:45:23.874Z,54.13
2022-07-28T15:50:25.618Z,54.18
2022-07-28T15:55:27.168Z,53.71
2022-07-28T16:00:28.722Z,53.17
2022-07-28T16:05:30.236Z,53.51
2022-07-28T16:10:33.272Z,52.90
2022-07-28T16:15:34.798Z,52.66
2022-07-28T16:20:37.322Z,52.97
2022-07-28T16:25:44.597Z,54.18
2022-07-28T16:30:47.891Z,54.34
2022-07-28T16:35:49.544Z,54.32
2022-07-28T16:40:53.864Z,53.66
2022-07-28T16:45:55.536Z,53.79
2022-07-28T16:50:57.130Z,53.90
2022-07-28T16:55:58.683Z,54.17
2022-07-28T17:01:01.425Z,54.75
2022-07-28T17:06:03.734Z,54.94
2022-07-28T17:11:05.255Z,54.40
2022-07-28T17:16:07.136Z,54.25
2022-07-28T17:21:08.713Z,53.82
2022-07-28T17:31:33.811Z,54.95
2022-07-28T17:36:41.982Z,54.53
2022-07-28T17:41:43.782Z,54.91
2022-07-28T17:46:46.716Z,55.94
2022-07-28T17:51:48.439Z,56.97
2022-07-28T17:56:49.945Z,57.39
2022-07-28T18:01:51.533Z,57.72
2022-07-28T18:06:53.083Z,57.86
2022-07-28T18:11:57.706Z,58.05
2022-07-28T18:17:02.729Z,58.48
2022-07-28T18:22:05.194Z,58.93
2022-07-28T18:27:06.938Z,59.37
2022-07-28T18:32:09.828Z,59.35
2022-07-28T18:37:15.490Z,59.68
2022-07-28T18:42:17.536Z,60.08
2022-07-28T18:47:19.990Z,60.30
2022-07-28T18:52:23.002Z,60.77
2022-07-28T18:57:24.538Z,61.21
2022-07-28T19:02:27.294Z,62.40
2022-07-28T19:07:29.847Z,62.17
2022-07-28T19:12:31.493Z,62.80
2022-07-28T19:17:34.029Z,63.26
2022-07-28T19:22:35.536Z,63.80
2022-07-28T19:27:37.597Z,64.23
2022-07-28T19:32:41.653Z,64.95
2022-07-28T19:37:45.915Z,65.13
2022-07-28T19:42:48.478Z,65.88
2022-07-28T19:47:50.232Z,66.25
2022-07-28T19:52:51.848Z,66.35
2022-07-28T19:57:55.250Z,66.37
2022-07-28T20:02:56.833Z,66.44
2022-07-28T20:07:58.424Z,66.60
2022-07-28T20:13:00.087Z,67.11
2022-07-28T20:18:01.808Z,67.34
2022-07-28T20:23:03.779Z,67.65
2022-07-28T20:28:06.097Z,67.44
2022-07-28T20:33:08.214Z,67.20
2022-07-28T20:38:09.733Z,67.13
2022-07-28T20:43:11.659Z,67.02
2022-07-28T20:48:14.419Z,66.64
2022-07-28T20:53:16.269Z,66.38
2022-07-28T20:58:17.790Z,66.45
2022-07-28T21:03:21.356Z,66.60
2022-07-28T21:08:23.241Z,66.80
2022-07-28T21:13:25.017Z,67.10
2022-07-28T21:18:26.576Z,67.60
2022-07-28T21:23:28.214Z,68.11
2022-07-28T21:28:55.703Z,68.74
2022-07-28T21:33:57.219Z,69.26
2022-07-28T21:38:58.837Z,70.17
2022-07-28T21:44:04.217Z,70.67
2022-07-28T21:49:06.336Z,71.28
2022-07-28T21:54:08.315Z,71.92
2022-07-28T21:59:09.856Z,72.63
2022-07-28T22:04:11.552Z,72.89
2022-07-28T22:09:13.193Z,72.36
2022-07-28T22:14:14.936Z,72.47
2022-07-28T22:19:16.704Z,72.85
2022-07-28T22:24:18.601Z,73.35
2022-07-28T22:29:20.404Z,74.20
2022-07-28T22:34:21.892Z,73.89
2022-07-28T22:39:24.507Z,72.97
2022-07-28T22:44:26.156Z,72.44
2022-07-28T22:49:27.717Z,72.24
2022-07-28T22:54:29.500Z,72.36
2022-07-28T22:59:32.965Z,72.64
2022-07-28T23:04:41.455Z,72.49
2022-07-28T23:09:43.445Z,72.50
2022-07-28T23:14:45.007Z,72.86
2022-07-28T23:19:46.622Z,73.33
2022-07-28T23:24:48.197Z,73.72
2022-07-28T23:29:49.821Z,74.04
2022-07-28T23:34:51.421Z,74.26
2022-07-28T23:39:53.019Z,74.43
2022-07-28T23:44:54.596Z,74.48
2022-07-28T23:49:56.138Z,75.00
2022-07-28T23:54:57.685Z,75.00
